sensor_id;sensor_type;location;lat;lon;timestamp;temperature;humidity
8105;DHT22;4095;48.942;9.104;2023-10-08T00:01:04;15.40;99.90
8105;DHT22;4095;48.942;9.104;2023-10-08T00:03:31;15.40;99.90
8105;DHT22;4095;48.942;9.104;2023-10-08T00:06:02;15.40;99.90
8105;DHT22;4095;48.942;9.104;2023-10-08T00:08:32;15.30;99.90
8105;DHT22;4095;48.942;9.104;2023-10-08T00:10:58;15.40;99.90
8105;DHT22;4095;48.942;9.104;2023-10-08T00:13:31;15.30;99.90
8105;DHT22;4095;48.942;9.104;2023-10-08T00:15:57;15.40;99.90
8105;DHT22;4095;48.942;9.104;2023-10-08T00:18:23;15.40;99.90
8105;DHT22;4095;48.942;9.104;2023-10-08T00:20:52;15.30;99.90
8105;DHT22;4095;48.942;9.104;2023-10-08T00:23:24;15.30;99.90
8105;DHT22;4095;48.942;9.104;2023-10-08T00:25:54;15.30;99.90
8105;DHT22;4095;48.942;9.104;2023-10-08T00:28:21;15.40;99.90
8105;DHT22;4095;48.942;9.104;2023-10-08T00:30:53;15.30;99.90
8105;DHT22;4095;48.942;9.104;2023-10-08T00:33:20;15.30;99.90
8105;DHT22;4095;48.942;9.104;2023-10-08T00:35:46;15.30;99.90
8105;DHT22;4095;48.942;9.104;2023-10-08T00:38:13;15.30;99.90
8105;DHT22;4095;48.942;9.104;2023-10-08T00:40:45;15.30;99.90
8105;DHT22;4095;48.942;9.104;2023-10-08T00:43:31;15.30;99.90
8105;DHT22;4095;48.942;9.104;2023-10-08T00:45:58;15.30;99.90
8105;DHT22;4095;48.942;9.104;2023-10-08T00:48:28;15.30;99.90
8105;DHT22;4095;48.942;9.104;2023-10-08T00:51:00;15.30;99.90
8105;DHT22;4095;48.942;9.104;2023-10-08T00:53:36;15.20;99.90
8105;DHT22;4095;48.942;9.104;2023-10-08T00:56:06;15.20;99.90
8105;DHT22;4095;48.942;9.104;2023-10-08T00:58:43;15.30;99.90
8105;DHT22;4095;48.942;9.104;2023-10-08T01:01:12;15.30;99.90
8105;DHT22;4095;48.942;9.104;2023-10-08T01:03:42;15.30;99.90
8105;DHT22;4095;48.942;9.104;2023-10-08T01:06:13;15.20;99.90
8105;DHT22;4095;48.942;9.104;2023-10-08T01:08:44;15.20;99.90
8105;DHT22;4095;48.942;9.104;2023-10-08T01:13:45;15.10;99.90
8105;DHT22;4095;48.942;9.104;2023-10-08T01:16:12;15.10;99.90
8105;DHT22;4095;48.942;9.104;2023-10-08T01:18:39;15.00;99.90
8105;DHT22;4095;48.942;9.104;2023-10-08T01:21:12;15.00;99.90
8105;DHT22;4095;48.942;9.104;2023-10-08T01:23:54;15.00;99.90
8105;DHT22;4095;48.942;9.104;2023-10-08T01:26:20;15.00;99.90
8105;DHT22;4095;48.942;9.104;2023-10-08T01:28:48;15.00;99.90
8105;DHT22;4095;48.942;9.104;2023-10-08T01:31:13;15.00;99.90
8105;DHT22;4095;48.942;9.104;2023-10-08T01:33:40;14.90;99.90
8105;DHT22;4095;48.942;9.104;2023-10-08T01:36:15;14.90;99.90
8105;DHT22;4095;48.942;9.104;2023-10-08T01:38:41;14.90;99.90
8105;DHT22;4095;48.942;9.104;2023-10-08T01:41:14;14.90;99.90
8105;DHT22;4095;48.942;9.104;2023-10-08T01:43:45;14.90;99.90
8105;DHT22;4095;48.942;9.104;2023-10-08T01:46:11;14.80;99.90
8105;DHT22;4095;48.942;9.104;2023-10-08T01:48:38;14.80;99.90
8105;DHT22;4095;48.942;9.104;2023-10-08T01:51:05;14.70;99.90
8105;DHT22;4095;48.942;9.104;2023-10-08T01:53:51;14.60;99.90
8105;DHT22;4095;48.942;9.104;2023-10-08T01:56:19;14.60;99.90
8105;DHT22;4095;48.942;9.104;2023-10-08T01:58:45;14.60;99.90
8105;DHT22;4095;48.942;9.104;2023-10-08T02:01:12;14.50;99.90
8105;DHT22;4095;48.942;9.104;2023-10-08T02:03:41;14.50;99.90
8105;DHT22;4095;48.942;9.104;2023-10-08T02:06:07;14.40;99.90
8105;DHT22;4095;48.942;9.104;2023-10-08T02:08:34;14.40;99.90
8105;DHT22;4095;48.942;9.104;2023-10-08T02:10:59;14.30;99.90
8105;DHT22;4095;48.942;9.104;2023-10-08T02:13:25;14.30;99.90
8105;DHT22;4095;48.942;9.104;2023-10-08T02:15:52;14.30;99.90
8105;DHT22;4095;48.942;9.104;2023-10-08T02:18:18;14.30;99.90
8105;DHT22;4095;48.942;9.104;2023-10-08T02:20:44;14.30;99.90
8105;DHT22;4095;48.942;9.104;2023-10-08T02:23:10;14.20;99.90
8105;DHT22;4095;48.942;9.104;2023-10-08T02:25:39;14.20;99.90
8105;DHT22;4095;48.942;9.104;2023-10-08T02:28:06;14.20;99.90
8105;DHT22;4095;48.942;9.104;2023-10-08T02:30:34;14.10;99.90
8105;DHT22;4095;48.942;9.104;2023-10-08T02:33:00;14.10;99.90
8105;DHT22;4095;48.942;9.104;2023-10-08T02:35:25;14.00;99.90
8105;DHT22;4095;48.942;9.104;2023-10-08T02:37:52;14.00;99.90
8105;DHT22;4095;48.942;9.104;2023-10-08T02:40:20;14.00;99.90
8105;DHT22;4095;48.942;9.104;2023-10-08T02:42:56;14.00;99.90
8105;DHT22;4095;48.942;9.104;2023-10-08T02:45:27;14.00;99.90
8105;DHT22;4095;48.942;9.104;2023-10-08T02:47:56;13.90;99.90
8105;DHT22;4095;48.942;9.104;2023-10-08T02:50:22;13.90;99.90
8105;DHT22;4095;48.942;9.104;2023-10-08T02:52:51;13.80;99.90
8105;DHT22;4095;48.942;9.104;2023-10-08T02:55:17;13.80;99.90
8105;DHT22;4095;48.942;9.104;2023-10-08T02:58:02;13.70;99.90
8105;DHT22;4095;48.942;9.104;2023-10-08T03:00:28;13.80;99.90
8105;DHT22;4095;48.942;9.104;2023-10-08T03:03:01;13.80;99.90
8105;DHT22;4095;48.942;9.104;2023-10-08T03:05:34;13.70;99.90
8105;DHT22;4095;48.942;9.104;2023-10-08T03:08:02;13.70;99.90
8105;DHT22;4095;48.942;9.104;2023-10-08T03:10:27;13.70;99.90
8105;DHT22;4095;48.942;9.104;2023-10-08T03:12:59;13.60;99.90
8105;DHT22;4095;48.942;9.104;2023-10-08T03:15:32;13.60;99.90
8105;DHT22;4095;48.942;9.104;2023-10-08T03:18:13;13.60;99.90
8105;DHT22;4095;48.942;9.104;2023-10-08T03:20:42;13.60;99.90
8105;DHT22;4095;48.942;9.104;2023-10-08T03:23:18;13.50;99.90
8105;DHT22;4095;48.942;9.104;2023-10-08T03:28:24;13.50;99.90
8105;DHT22;4095;48.942;9.104;2023-10-08T03:30:51;13.50;99.90
8105;DHT22;4095;48.942;9.104;2023-10-08T03:33:21;13.50;99.90
8105;DHT22;4095;48.942;9.104;2023-10-08T03:35:52;13.50;99.90
8105;DHT22;4095;48.942;9.104;2023-10-08T03:38:21;13.50;99.90
8105;DHT22;4095;48.942;9.104;2023-10-08T03:40:54;13.50;99.90
8105;DHT22;4095;48.942;9.104;2023-10-08T03:43:23;13.50;99.90
8105;DHT22;4095;48.942;9.104;2023-10-08T03:45:59;13.50;99.90
8105;DHT22;4095;48.942;9.104;2023-10-08T03:48:26;13.50;99.90
8105;DHT22;4095;48.942;9.104;2023-10-08T03:50:55;13.50;99.90
8105;DHT22;4095;48.942;9.104;2023-10-08T03:53:32;13.50;99.90
8105;DHT22;4095;48.942;9.104;2023-10-08T03:56:03;13.50;99.90
8105;DHT22;4095;48.942;9.104;2023-10-08T03:58:31;13.50;99.90
8105;DHT22;4095;48.942;9.104;2023-10-08T04:01:06;13.40;99.90
8105;DHT22;4095;48.942;9.104;2023-10-08T04:03:36;13.40;99.90
8105;DHT22;4095;48.942;9.104;2023-10-08T04:06:24;13.40;99.90
8105;DHT22;4095;48.942;9.104;2023-10-08T04:09:04;13.40;99.90
8105;DHT22;4095;48.942;9.104;2023-10-08T04:11:45;13.40;99.90
8105;DHT22;4095;48.942;9.104;2023-10-08T04:14:18;13.40;99.90
8105;DHT22;4095;48.942;9.104;2023-10-08T04:16:45;13.40;99.90
8105;DHT22;4095;48.942;9.104;2023-10-08T04:19:11;13.50;99.90
8105;DHT22;4095;48.942;9.104;2023-10-08T04:21:38;13.50;99.90
8105;DHT22;4095;48.942;9.104;2023-10-08T04:24:07;13.50;99.90
8105;DHT22;4095;48.942;9.104;2023-10-08T04:26:34;13.50;99.90
8105;DHT22;4095;48.942;9.104;2023-10-08T04:29:01;13.50;99.90
8105;DHT22;4095;48.942;9.104;2023-10-08T04:31:31;13.50;99.90
8105;DHT22;4095;48.942;9.104;2023-10-08T04:34:04;13.50;99.90
8105;DHT22;4095;48.942;9.104;2023-10-08T04:36:45;13.50;99.90
8105;DHT22;4095;48.942;9.104;2023-10-08T04:39:12;13.50;99.90
8105;DHT22;4095;48.942;9.104;2023-10-08T04:41:40;13.50;99.90
8105;DHT22;4095;48.942;9.104;2023-10-08T04:44:09;13.50;99.90
8105;DHT22;4095;48.942;9.104;2023-10-08T04:46:43;13.50;99.90
8105;DHT22;4095;48.942;9.104;2023-10-08T04:49:12;13.50;99.90
8105;DHT22;4095;48.942;9.104;2023-10-08T04:51:56;13.50;99.90
8105;DHT22;4095;48.942;9.104;2023-10-08T04:54:24;13.50;99.90
8105;DHT22;4095;48.942;9.104;2023-10-08T04:56:50;13.50;99.90
8105;DHT22;4095;48.942;9.104;2023-10-08T04:59:16;13.50;99.90
8105;DHT22;4095;48.942;9.104;2023-10-08T05:01:46;13.50;99.90
8105;DHT22;4095;48.942;9.104;2023-10-08T05:04:35;13.40;99.90
8105;DHT22;4095;48.942;9.104;2023-10-08T05:07:12;13.40;99.90
8105;DHT22;4095;48.942;9.104;2023-10-08T05:10:04;13.30;99.90
8105;DHT22;4095;48.942;9.104;2023-10-08T05:12:33;13.30;99.90
8105;DHT22;4095;48.942;9.104;2023-10-08T05:14:59;13.30;99.90
8105;DHT22;4095;48.942;9.104;2023-10-08T05:17:40;13.30;99.90
8105;DHT22;4095;48.942;9.104;2023-10-08T05:20:23;13.30;99.90
8105;DHT22;4095;48.942;9.104;2023-10-08T05:23:13;13.30;99.90
8105;DHT22;4095;48.942;9.104;2023-10-08T05:25:47;13.30;99.90
8105;DHT22;4095;48.942;9.104;2023-10-08T05:28:28;13.20;99.90
8105;DHT22;4095;48.942;9.104;2023-10-08T05:30:56;13.20;99.90
8105;DHT22;4095;48.942;9.104;2023-10-08T05:33:47;13.20;99.90
8105;DHT22;4095;48.942;9.104;2023-10-08T05:36:31;13.20;99.90
8105;DHT22;4095;48.942;9.104;2023-10-08T05:39:16;13.20;99.90
8105;DHT22;4095;48.942;9.104;2023-10-08T05:42:05;13.20;99.90
8105;DHT22;4095;48.942;9.104;2023-10-08T05:44:43;13.20;99.90
8105;DHT22;4095;48.942;9.104;2023-10-08T05:47:32;13.20;99.90
8105;DHT22;4095;48.942;9.104;2023-10-08T05:50:02;13.20;99.90
8105;DHT22;4095;48.942;9.104;2023-10-08T05:52:43;13.30;99.90
8105;DHT22;4095;48.942;9.104;2023-10-08T05:55:25;13.30;99.90
8105;DHT22;4095;48.942;9.104;2023-10-08T05:57:53;13.30;99.90
8105;DHT22;4095;48.942;9.104;2023-10-08T06:00:28;13.30;99.90
8105;DHT22;4095;48.942;9.104;2023-10-08T06:03:00;13.30;99.90
8105;DHT22;4095;48.942;9.104;2023-10-08T06:05:35;13.30;99.90
8105;DHT22;4095;48.942;9.104;2023-10-08T06:08:08;13.30;99.90
8105;DHT22;4095;48.942;9.104;2023-10-08T06:10:38;13.30;99.90
8105;DHT22;4095;48.942;9.104;2023-10-08T06:13:08;13.40;99.90
8105;DHT22;4095;48.942;9.104;2023-10-08T06:15:40;13.40;99.90
8105;DHT22;4095;48.942;9.104;2023-10-08T06:18:15;13.40;99.90
8105;DHT22;4095;48.942;9.104;2023-10-08T06:20:42;13.30;99.90
8105;DHT22;4095;48.942;9.104;2023-10-08T06:23:12;13.40;99.90
8105;DHT22;4095;48.942;9.104;2023-10-08T06:25:39;13.40;99.90
8105;DHT22;4095;48.942;9.104;2023-10-08T06:28:16;13.40;99.90
8105;DHT22;4095;48.942;9.104;2023-10-08T06:30:45;13.40;99.90
8105;DHT22;4095;48.942;9.104;2023-10-08T06:33:11;13.50;99.90
8105;DHT22;4095;48.942;9.104;2023-10-08T06:35:37;13.50;99.90
8105;DHT22;4095;48.942;9.104;2023-10-08T06:38:03;13.50;99.90
8105;DHT22;4095;48.942;9.104;2023-10-08T06:40:40;13.50;99.90
8105;DHT22;4095;48.942;9.104;2023-10-08T06:43:08;13.60;99.90
8105;DHT22;4095;48.942;9.104;2023-10-08T06:45:50;13.60;99.90
8105;DHT22;4095;48.942;9.104;2023-10-08T06:48:19;13.70;99.90
8105;DHT22;4095;48.942;9.104;2023-10-08T06:50:47;13.70;99.90
8105;DHT22;4095;48.942;9.104;2023-10-08T06:53:13;13.70;99.90
8105;DHT22;4095;48.942;9.104;2023-10-08T06:55:46;13.80;99.90
8105;DHT22;4095;48.942;9.104;2023-10-08T06:58:14;13.80;99.90
8105;DHT22;4095;48.942;9.104;2023-10-08T07:00:40;13.80;99.90
8105;DHT22;4095;48.942;9.104;2023-10-08T07:03:13;13.90;99.90
8105;DHT22;4095;48.942;9.104;2023-10-08T07:05:48;13.90;99.90
8105;DHT22;4095;48.942;9.104;2023-10-08T07:08:24;13.90;99.90
8105;DHT22;4095;48.942;9.104;2023-10-08T07:10:51;13.90;99.90
8105;DHT22;4095;48.942;9.104;2023-10-08T07:13:18;13.90;99.90
8105;DHT22;4095;48.942;9.104;2023-10-08T07:15:45;14.00;99.90
8105;DHT22;4095;48.942;9.104;2023-10-08T07:18:11;14.20;99.90
8105;DHT22;4095;48.942;9.104;2023-10-08T07:20:45;14.40;99.90
8105;DHT22;4095;48.942;9.104;2023-10-08T07:23:11;14.60;99.90
8105;DHT22;4095;48.942;9.104;2023-10-08T07:25:59;14.70;99.90
8105;DHT22;4095;48.942;9.104;2023-10-08T07:28:40;14.80;99.90
8105;DHT22;4095;48.942;9.104;2023-10-08T07:31:16;14.90;99.90
8105;DHT22;4095;48.942;9.104;2023-10-08T07:33:47;15.00;99.90
8105;DHT22;4095;48.942;9.104;2023-10-08T07:36:13;15.20;99.90
8105;DHT22;4095;48.942;9.104;2023-10-08T07:38:43;15.30;99.90
8105;DHT22;4095;48.942;9.104;2023-10-08T07:41:12;15.40;99.90
8105;DHT22;4095;48.942;9.104;2023-10-08T07:43:40;15.50;99.90
8105;DHT22;4095;48.942;9.104;2023-10-08T07:46:07;15.60;99.90
8105;DHT22;4095;48.942;9.104;2023-10-08T07:48:34;15.80;99.90
8105;DHT22;4095;48.942;9.104;2023-10-08T07:51:00;15.90;99.90
8105;DHT22;4095;48.942;9.104;2023-10-08T07:53:27;16.00;99.90
8105;DHT22;4095;48.942;9.104;2023-10-08T07:56:06;16.10;99.90
8105;DHT22;4095;48.942;9.104;2023-10-08T07:58:33;16.20;99.90
8105;DHT22;4095;48.942;9.104;2023-10-08T08:01:03;16.20;99.90
8105;DHT22;4095;48.942;9.104;2023-10-08T08:03:34;16.20;99.90
8105;DHT22;4095;48.942;9.104;2023-10-08T08:06:08;16.30;99.90
8105;DHT22;4095;48.942;9.104;2023-10-08T08:08:39;16.40;99.90
8105;DHT22;4095;48.942;9.104;2023-10-08T08:11:08;16.50;99.90
8105;DHT22;4095;48.942;9.104;2023-10-08T08:13:44;16.70;99.90
8105;DHT22;4095;48.942;9.104;2023-10-08T08:16:15;16.80;99.90
8105;DHT22;4095;48.942;9.104;2023-10-08T08:18:49;16.90;99.90
8105;DHT22;4095;48.942;9.104;2023-10-08T08:21:17;17.10;99.90
8105;DHT22;4095;48.942;9.104;2023-10-08T08:23:46;17.20;99.90
8105;DHT22;4095;48.942;9.104;2023-10-08T08:26:23;17.40;99.90
8105;DHT22;4095;48.942;9.104;2023-10-08T08:28:56;17.60;99.90
8105;DHT22;4095;48.942;9.104;2023-10-08T08:31:25;17.70;99.90
8105;DHT22;4095;48.942;9.104;2023-10-08T08:33:54;17.80;99.90
8105;DHT22;4095;48.942;9.104;2023-10-08T08:36:27;17.90;99.90
8105;DHT22;4095;48.942;9.104;2023-10-08T08:38:52;18.00;99.90
8105;DHT22;4095;48.942;9.104;2023-10-08T08:41:19;18.00;99.90
8105;DHT22;4095;48.942;9.104;2023-10-08T08:43:53;18.10;99.90
8105;DHT22;4095;48.942;9.104;2023-10-08T08:46:32;18.20;99.90
8105;DHT22;4095;48.942;9.104;2023-10-08T08:49:06;18.40;99.90
8105;DHT22;4095;48.942;9.104;2023-10-08T08:51:37;18.70;99.90
8105;DHT22;4095;48.942;9.104;2023-10-08T08:54:04;19.00;99.90
8105;DHT22;4095;48.942;9.104;2023-10-08T08:56:35;19.20;99.90
8105;DHT22;4095;48.942;9.104;2023-10-08T08:59:04;19.40;99.90
8105;DHT22;4095;48.942;9.104;2023-10-08T09:01:30;19.60;99.90
8105;DHT22;4095;48.942;9.104;2023-10-08T09:04:02;19.80;99.90
8105;DHT22;4095;48.942;9.104;2023-10-08T09:06:32;20.00;99.90
8105;DHT22;4095;48.942;9.104;2023-10-08T09:09:00;20.30;99.90
8105;DHT22;4095;48.942;9.104;2023-10-08T09:11:40;20.30;99.90
8105;DHT22;4095;48.942;9.104;2023-10-08T09:14:09;20.50;99.90
8105;DHT22;4095;48.942;9.104;2023-10-08T09:16:37;20.60;99.90
8105;DHT22;4095;48.942;9.104;2023-10-08T09:19:03;20.80;99.90
8105;DHT22;4095;48.942;9.104;2023-10-08T09:21:30;20.90;99.90
8105;DHT22;4095;48.942;9.104;2023-10-08T09:23:56;21.00;99.90
8105;DHT22;4095;48.942;9.104;2023-10-08T09:26:25;21.20;99.90
8105;DHT22;4095;48.942;9.104;2023-10-08T09:28:54;21.50;99.90
8105;DHT22;4095;48.942;9.104;2023-10-08T09:31:23;21.70;99.90
8105;DHT22;4095;48.942;9.104;2023-10-08T09:33:56;21.70;99.90
8105;DHT22;4095;48.942;9.104;2023-10-08T09:36:22;21.80;99.90
8105;DHT22;4095;48.942;9.104;2023-10-08T09:38:59;21.90;99.90
8105;DHT22;4095;48.942;9.104;2023-10-08T09:41:28;22.10;99.90
8105;DHT22;4095;48.942;9.104;2023-10-08T09:43:54;22.20;99.90
8105;DHT22;4095;48.942;9.104;2023-10-08T09:46:25;22.30;99.90
8105;DHT22;4095;48.942;9.104;2023-10-08T09:48:59;22.30;99.80
8105;DHT22;4095;48.942;9.104;2023-10-08T09:51:29;22.30;99.90
8105;DHT22;4095;48.942;9.104;2023-10-08T09:54:20;22.30;99.90
8105;DHT22;4095;48.942;9.104;2023-10-08T09:56:47;22.30;99.60
8105;DHT22;4095;48.942;9.104;2023-10-08T09:59:13;22.30;98.90
8105;DHT22;4095;48.942;9.104;2023-10-08T10:01:41;22.40;98.70
8105;DHT22;4095;48.942;9.104;2023-10-08T10:04:22;22.50;98.80
8105;DHT22;4095;48.942;9.104;2023-10-08T10:06:55;22.60;98.30
8105;DHT22;4095;48.942;9.104;2023-10-08T10:09:25;22.80;99.00
8105;DHT22;4095;48.942;9.104;2023-10-08T10:11:51;22.90;98.60
8105;DHT22;4095;48.942;9.104;2023-10-08T10:14:24;23.00;98.80
8105;DHT22;4095;48.942;9.104;2023-10-08T10:19:36;23.00;98.70
8105;DHT22;4095;48.942;9.104;2023-10-08T10:22:03;23.00;98.20
8105;DHT22;4095;48.942;9.104;2023-10-08T10:24:36;23.10;98.60
8105;DHT22;4095;48.942;9.104;2023-10-08T10:27:12;23.20;98.50
8105;DHT22;4095;48.942;9.104;2023-10-08T10:29:40;23.30;98.20
8105;DHT22;4095;48.942;9.104;2023-10-08T10:32:10;23.50;98.00
8105;DHT22;4095;48.942;9.104;2023-10-08T10:34:39;23.90;98.00
8105;DHT22;4095;48.942;9.104;2023-10-08T10:37:05;24.80;97.50
8105;DHT22;4095;48.942;9.104;2023-10-08T10:39:54;26.10;95.50
8105;DHT22;4095;48.942;9.104;2023-10-08T10:42:26;27.90;93.80
8105;DHT22;4095;48.942;9.104;2023-10-08T10:44:54;29.70;91.10
8105;DHT22;4095;48.942;9.104;2023-10-08T10:47:21;31.20;87.80
8105;DHT22;4095;48.942;9.104;2023-10-08T10:49:50;32.30;85.20
8105;DHT22;4095;48.942;9.104;2023-10-08T10:52:24;32.30;82.50
8105;DHT22;4095;48.942;9.104;2023-10-08T10:55:10;31.30;82.80
8105;DHT22;4095;48.942;9.104;2023-10-08T10:57:40;30.50;83.90
8105;DHT22;4095;48.942;9.104;2023-10-08T11:00:07;30.20;84.80
8105;DHT22;4095;48.942;9.104;2023-10-08T11:02:56;30.00;86.00
8105;DHT22;4095;48.942;9.104;2023-10-08T11:05:26;31.00;82.70
8105;DHT22;4095;48.942;9.104;2023-10-08T11:07:58;32.40;80.40
8105;DHT22;4095;48.942;9.104;2023-10-08T11:10:37;34.00;78.20
8105;DHT22;4095;48.942;9.104;2023-10-08T11:13:05;34.20;75.40
8105;DHT22;4095;48.942;9.104;2023-10-08T11:15:40;33.60;74.80
8105;DHT22;4095;48.942;9.104;2023-10-08T11:18:10;34.50;73.40
8105;DHT22;4095;48.942;9.104;2023-10-08T11:20:36;34.70;73.30
8105;DHT22;4095;48.942;9.104;2023-10-08T11:23:10;35.30;72.30
8105;DHT22;4095;48.942;9.104;2023-10-08T11:25:57;36.50;70.00
8105;DHT22;4095;48.942;9.104;2023-10-08T11:28:34;36.90;67.20
8105;DHT22;4095;48.942;9.104;2023-10-08T11:31:04;37.40;65.60
8105;DHT22;4095;48.942;9.104;2023-10-08T11:33:41;38.00;65.00
8105;DHT22;4095;48.942;9.104;2023-10-08T11:36:08;38.60;63.00
8105;DHT22;4095;48.942;9.104;2023-10-08T11:38:53;39.20;62.00
8105;DHT22;4095;48.942;9.104;2023-10-08T11:41:26;39.90;60.50
8105;DHT22;4095;48.942;9.104;2023-10-08T11:43:54;40.40;58.70
8105;DHT22;4095;48.942;9.104;2023-10-08T11:46:27;40.60;57.00
8105;DHT22;4095;48.942;9.104;2023-10-08T11:48:54;40.50;55.40
8105;DHT22;4095;48.942;9.104;2023-10-08T11:51:24;40.50;55.70
8105;DHT22;4095;48.942;9.104;2023-10-08T11:53:50;40.70;55.10
8105;DHT22;4095;48.942;9.104;2023-10-08T11:56:17;40.80;53.60
8105;DHT22;4095;48.942;9.104;2023-10-08T11:58:47;40.70;52.60
8105;DHT22;4095;48.942;9.104;2023-10-08T12:01:12;40.50;54.00
8105;DHT22;4095;48.942;9.104;2023-10-08T12:03:44;40.10;54.60
8105;DHT22;4095;48.942;9.104;2023-10-08T12:06:12;39.60;54.20
8105;DHT22;4095;48.942;9.104;2023-10-08T12:08:42;39.30;54.40
8105;DHT22;4095;48.942;9.104;2023-10-08T12:11:10;38.60;53.70
8105;DHT22;4095;48.942;9.104;2023-10-08T12:13:39;38.40;56.00
8105;DHT22;4095;48.942;9.104;2023-10-08T12:16:13;38.50;54.30
8105;DHT22;4095;48.942;9.104;2023-10-08T12:18:44;38.00;55.60
8105;DHT22;4095;48.942;9.104;2023-10-08T12:21:13;37.80;55.70
8105;DHT22;4095;48.942;9.104;2023-10-08T12:23:41;38.20;56.20
8105;DHT22;4095;48.942;9.104;2023-10-08T12:26:09;38.40;55.70
8105;DHT22;4095;48.942;9.104;2023-10-08T12:28:38;38.70;55.40
8105;DHT22;4095;48.942;9.104;2023-10-08T12:31:03;38.90;55.00
8105;DHT22;4095;48.942;9.104;2023-10-08T12:33:29;38.90;54.60
8105;DHT22;4095;48.942;9.104;2023-10-08T12:35:57;38.80;54.90
8105;DHT22;4095;48.942;9.104;2023-10-08T12:38:24;38.40;54.80
8105;DHT22;4095;48.942;9.104;2023-10-08T12:40:53;37.80;54.80
8105;DHT22;4095;48.942;9.104;2023-10-08T12:43:20;36.80;55.90
8105;DHT22;4095;48.942;9.104;2023-10-08T12:45:49;35.90;57.10
8105;DHT22;4095;48.942;9.104;2023-10-08T12:48:19;35.10;58.30
8105;DHT22;4095;48.942;9.104;2023-10-08T12:50:45;34.10;57.50
8105;DHT22;4095;48.942;9.104;2023-10-08T12:53:19;33.10;59.30
8105;DHT22;4095;48.942;9.104;2023-10-08T12:55:49;32.30;60.80
8105;DHT22;4095;48.942;9.104;2023-10-08T12:58:21;31.60;62.30
8105;DHT22;4095;48.942;9.104;2023-10-08T13:00:52;31.00;62.50
8105;DHT22;4095;48.942;9.104;2023-10-08T13:03:23;30.50;65.30
8105;DHT22;4095;48.942;9.104;2023-10-08T13:05:50;30.10;65.60
8105;DHT22;4095;48.942;9.104;2023-10-08T13:08:19;29.60;65.60
8105;DHT22;4095;48.942;9.104;2023-10-08T13:10:48;29.30;65.70
8105;DHT22;4095;48.942;9.104;2023-10-08T13:13:14;28.90;68.00
8105;DHT22;4095;48.942;9.104;2023-10-08T13:15:40;28.60;68.70
8105;DHT22;4095;48.942;9.104;2023-10-08T13:18:09;28.30;68.20
8105;DHT22;4095;48.942;9.104;2023-10-08T13:20:34;28.00;69.40
8105;DHT22;4095;48.942;9.104;2023-10-08T13:23:01;27.80;69.00
8105;DHT22;4095;48.942;9.104;2023-10-08T13:25:26;27.60;70.10
8105;DHT22;4095;48.942;9.104;2023-10-08T13:27:52;27.40;70.90
8105;DHT22;4095;48.942;9.104;2023-10-08T13:30:18;27.30;71.80
8105;DHT22;4095;48.942;9.104;2023-10-08T13:32:43;27.20;71.40
8105;DHT22;4095;48.942;9.104;2023-10-08T13:35:11;27.10;73.10
8105;DHT22;4095;48.942;9.104;2023-10-08T13:37:36;26.90;73.80
8105;DHT22;4095;48.942;9.104;2023-10-08T13:40:02;26.90;71.90
8105;DHT22;4095;48.942;9.104;2023-10-08T13:42:28;26.80;72.00
8105;DHT22;4095;48.942;9.104;2023-10-08T13:44:55;26.70;72.10
8105;DHT22;4095;48.942;9.104;2023-10-08T13:47:23;26.60;74.40
8105;DHT22;4095;48.942;9.104;2023-10-08T13:49:52;26.50;74.90
8105;DHT22;4095;48.942;9.104;2023-10-08T13:52:21;26.40;75.20
8105;DHT22;4095;48.942;9.104;2023-10-08T13:54:52;26.40;73.60
8105;DHT22;4095;48.942;9.104;2023-10-08T13:57:21;26.40;74.30
8105;DHT22;4095;48.942;9.104;2023-10-08T13:59:48;26.40;74.20
8105;DHT22;4095;48.942;9.104;2023-10-08T14:02:14;26.50;75.20
8105;DHT22;4095;48.942;9.104;2023-10-08T14:04:44;26.40;74.40
8105;DHT22;4095;48.942;9.104;2023-10-08T14:07:10;26.40;74.80
8105;DHT22;4095;48.942;9.104;2023-10-08T14:09:46;26.50;74.90
8105;DHT22;4095;48.942;9.104;2023-10-08T14:12:12;26.60;75.80
8105;DHT22;4095;48.942;9.104;2023-10-08T14:14:39;26.60;75.80
8105;DHT22;4095;48.942;9.104;2023-10-08T14:17:14;26.70;76.50
8105;DHT22;4095;48.942;9.104;2023-10-08T14:19:41;26.60;77.40
8105;DHT22;4095;48.942;9.104;2023-10-08T14:22:18;26.50;77.70
8105;DHT22;4095;48.942;9.104;2023-10-08T14:24:47;26.40;78.90
8105;DHT22;4095;48.942;9.104;2023-10-08T14:27:26;26.30;77.90
8105;DHT22;4095;48.942;9.104;2023-10-08T14:30:03;26.20;79.60
8105;DHT22;4095;48.942;9.104;2023-10-08T14:32:30;26.00;81.50
8105;DHT22;4095;48.942;9.104;2023-10-08T14:34:58;25.90;81.50
8105;DHT22;4095;48.942;9.104;2023-10-08T14:37:24;25.80;81.70
8105;DHT22;4095;48.942;9.104;2023-10-08T14:40:08;25.70;82.70
8105;DHT22;4095;48.942;9.104;2023-10-08T14:42:53;25.60;84.90
8105;DHT22;4095;48.942;9.104;2023-10-08T14:45:22;25.60;84.50
8105;DHT22;4095;48.942;9.104;2023-10-08T14:47:48;25.50;84.80
8105;DHT22;4095;48.942;9.104;2023-10-08T14:50:14;25.50;86.50
8105;DHT22;4095;48.942;9.104;2023-10-08T14:52:46;25.40;86.80
8105;DHT22;4095;48.942;9.104;2023-10-08T14:55:12;25.30;87.80
8105;DHT22;4095;48.942;9.104;2023-10-08T14:57:41;25.30;90.40
8105;DHT22;4095;48.942;9.104;2023-10-08T15:00:08;25.20;90.60
8105;DHT22;4095;48.942;9.104;2023-10-08T15:02:34;25.10;90.30
8105;DHT22;4095;48.942;9.104;2023-10-08T15:05:00;25.10;90.00
8105;DHT22;4095;48.942;9.104;2023-10-08T15:07:29;25.00;90.10
8105;DHT22;4095;48.942;9.104;2023-10-08T15:09:54;25.00;90.80
8105;DHT22;4095;48.942;9.104;2023-10-08T15:12:23;25.00;91.90
8105;DHT22;4095;48.942;9.104;2023-10-08T15:14:51;25.10;92.00
8105;DHT22;4095;48.942;9.104;2023-10-08T15:17:17;25.00;91.10
8105;DHT22;4095;48.942;9.104;2023-10-08T15:19:43;25.00;93.10
8105;DHT22;4095;48.942;9.104;2023-10-08T15:22:08;25.00;92.40
8105;DHT22;4095;48.942;9.104;2023-10-08T15:24:34;24.90;91.10
8105;DHT22;4095;48.942;9.104;2023-10-08T15:27:02;24.80;93.40
8105;DHT22;4095;48.942;9.104;2023-10-08T15:29:29;24.70;92.20
8105;DHT22;4095;48.942;9.104;2023-10-08T15:31:55;24.70;92.80
8105;DHT22;4095;48.942;9.104;2023-10-08T15:34:22;24.60;94.30
8105;DHT22;4095;48.942;9.104;2023-10-08T15:36:49;24.50;92.90
8105;DHT22;4095;48.942;9.104;2023-10-08T15:39:15;24.50;94.70
8105;DHT22;4095;48.942;9.104;2023-10-08T15:41:51;24.40;95.00
8105;DHT22;4095;48.942;9.104;2023-10-08T15:44:17;24.30;94.40
8105;DHT22;4095;48.942;9.104;2023-10-08T15:46:44;24.20;96.40
8105;DHT22;4095;48.942;9.104;2023-10-08T15:49:10;24.20;97.40
8105;DHT22;4095;48.942;9.104;2023-10-08T15:51:35;24.10;96.00
8105;DHT22;4095;48.942;9.104;2023-10-08T15:54:03;24.10;96.50
8105;DHT22;4095;48.942;9.104;2023-10-08T15:56:29;24.00;97.10
8105;DHT22;4095;48.942;9.104;2023-10-08T15:58:55;24.00;98.40
8105;DHT22;4095;48.942;9.104;2023-10-08T16:01:22;24.00;98.40
8105;DHT22;4095;48.942;9.104;2023-10-08T16:03:47;23.90;97.70
8105;DHT22;4095;48.942;9.104;2023-10-08T16:06:13;23.90;98.60
8105;DHT22;4095;48.942;9.104;2023-10-08T16:08:39;23.90;99.20
8105;DHT22;4095;48.942;9.104;2023-10-08T16:11:04;23.80;99.40
8105;DHT22;4095;48.942;9.104;2023-10-08T16:13:30;23.70;98.70
8105;DHT22;4095;48.942;9.104;2023-10-08T16:15:56;23.60;99.10
8105;DHT22;4095;48.942;9.104;2023-10-08T16:18:25;23.60;98.60
8105;DHT22;4095;48.942;9.104;2023-10-08T16:20:51;23.50;99.20
8105;DHT22;4095;48.942;9.104;2023-10-08T16:23:18;23.30;99.20
8105;DHT22;4095;48.942;9.104;2023-10-08T16:25:44;23.20;98.80
8105;DHT22;4095;48.942;9.104;2023-10-08T16:28:10;23.10;99.10
8105;DHT22;4095;48.942;9.104;2023-10-08T16:30:36;23.00;99.20